Ardmore, Alabama
Current Conditions -  °F | °C
As of 10:15 AM on Tuesday 21 Oct 2014 (Local Time) from KFYM Reporting Station
Clear Clear  
Wind Chill: 16°   Ceiling: Unl
Heat Index: 16°   Visibility: 10mi
Dew Point: 10°   Wind: 20mph
Humidity: 68%   Direction: 40°NE
Pressure: 30.08"   Gusts: 38mph
Location:  34.99°N, 86.85°W
Report Text: KFYM 211515Z AUTO 04017G33KT 10SM CLR 16/10 A3008 RMK
Loading
Personal Weather Stations






























Interactive Weather Map
Tropical Storm Tracking
New forecast layout! Learn more

10-Day Weather Forecast

Advertisements
Track Severe Weather on mobile